Time;durP1;ratioP1;P1;durP2;ratioP2;P2;SDS_P1;SDS_P2;PMS_P1;PMS_P2;Temp;Humidity;BMP_temperature;BMP_pressure;BME280_temperature;BME280_humidity;BME280_pressure;Samples;Min_cycle;Max_cycle;Signal;HPM_P1;HPM_P2
2022/12/31 00:00:38;;;;;;;;;;;;;;;16.59;61.85;100178.25;2081135;28;19936;-70
2022/12/31 00:01:40;;;;;;;;;;;;;;;16.59;61.78;100178.25;2084638;28;20457;-70
2022/12/31 00:02:42;;;;;;;;;;;;;;;16.60;61.60;100174.38;2086514;28;19934;-70
2022/12/31 00:03:45;;;;;;;;;;;;;;;16.60;61.76;100177.09;2085191;28;20003;-70
2022/12/31 00:04:47;;;;;;;;;;;;;;;16.59;61.87;100173.59;2085380;28;19928;-71
2022/12/31 00:05:49;;;;;;;;;;;;;;;16.60;61.62;100179.84;2084753;28;19929;-71
2022/12/31 00:06:51;;;;;;;;;;;;;;;16.59;61.45;100179.03;2085359;28;19929;-70
2022/12/31 00:07:53;;;;;;;;;;;;;;;16.59;61.57;100184.50;2081704;28;20463;-70
2022/12/31 00:08:56;;;;;;;;;;;;;;;16.59;61.85;100189.94;2077533;28;19983;-70
2022/12/31 00:09:58;;;;;;;;;;;;;;;16.59;61.88;100189.16;2070150;28;19930;-71
2022/12/31 00:11:00;;;;;;;;;;;;;;;16.58;61.86;100185.69;2077980;28;20404;-70
2022/12/31 00:12:04;;;;;;;;;;;;;;;16.59;61.87;100194.59;2073016;28;19929;-70
2022/12/31 00:13:06;;;;;;;;;;;;;;;16.58;61.84;100188.41;2079416;28;20320;-70
2022/12/31 00:14:09;;;;;;;;;;;;;;;16.59;61.79;100189.16;2084951;28;19929;-70
2022/12/31 00:15:10;;;;;;;;;;;;;;;16.59;61.71;100200.06;2087410;28;19936;-69
2022/12/31 00:16:14;;;;;;;;;;;;;;;16.58;61.78;100196.56;2081434;28;19936;-68
2022/12/31 00:17:16;;;;;;;;;;;;;;;16.59;61.86;100200.06;2080687;28;20016;-70
2022/12/31 00:18:18;;;;;;;;;;;;;;;16.59;61.83;100194.59;2081434;28;19960;-69
2022/12/31 00:19:20;;;;;;;;;;;;;;;16.59;61.85;100186.44;2078849;28;19963;-69
2022/12/31 00:20:22;;;;;;;;;;;;;;;16.59;61.89;100183.72;2088542;28;20426;-70
2022/12/31 00:21:24;;;;;;;;;;;;;;;16.58;61.74;100190.34;2079431;28;19933;-71
2022/12/31 00:22:27;;;;;;;;;;;;;;;16.58;61.83;100191.13;2073105;28;19933;-70
2022/12/31 00:23:29;;;;;;;;;;;;;;;16.58;61.74;100182.16;2079330;28;19936;-70
2022/12/31 00:24:32;;;;;;;;;;;;;;;16.58;61.83;100182.16;2080775;28;19929;-70
2022/12/31 00:25:34;;;;;;;;;;;;;;;16.58;61.74;100182.16;2089124;28;19940;-70
2022/12/31 00:26:37;;;;;;;;;;;;;;;16.58;61.94;100187.63;2087050;28;19932;-71
2022/12/31 00:27:39;;;;;;;;;;;;;;;16.58;61.51;100187.63;2084815;28;19952;-70
2022/12/31 00:28:42;;;;;;;;;;;;;;;16.58;61.75;100187.63;2089043;28;19951;-70
2022/12/31 00:29:44;;;;;;;;;;;;;;;16.58;61.65;100188.41;2090661;28;19928;-71
2022/12/31 00:30:47;;;;;;;;;;;;;;;16.58;61.53;100188.41;2087409;28;19933;-69
2022/12/31 00:31:49;;;;;;;;;;;;;;;16.58;61.57;100193.06;2075791;28;19929;-70
2022/12/31 00:32:51;;;;;;;;;;;;;;;16.58;61.86;100193.06;2080261;28;20420;-70
2022/12/31 00:33:54;;;;;;;;;;;;;;;16.58;61.58;100193.06;2079191;28;20138;-69
2022/12/31 00:34:55;;;;;;;;;;;;;;;16.58;61.71;100193.06;2070174;28;19999;-70
2022/12/31 00:36:03;;;;;;;;;;;;;;;16.57;61.73;100191.53;2075287;28;20409;-70
2022/12/31 00:37:05;;;;;;;;;;;;;;;16.57;61.84;100186.06;2095394;28;19933;-69
2022/12/31 00:38:07;;;;;;;;;;;;;;;16.57;61.75;100191.53;2100751;28;19928;-69
2022/12/31 00:39:09;;;;;;;;;;;;;;;16.58;61.87;100193.06;2079629;28;19928;-69
2022/12/31 00:40:13;;;;;;;;;;;;;;;16.57;61.88;100175.94;2070027;28;19936;-70
2022/12/31 00:41:16;;;;;;;;;;;;;;;16.58;61.76;100187.63;2078907;28;19933;-70
2022/12/31 00:42:18;;;;;;;;;;;;;;;16.57;61.90;100178.66;2082297;28;19929;-70
2022/12/31 00:43:21;;;;;;;;;;;;;;;16.58;61.83;100182.16;2090642;28;20006;-70
2022/12/31 00:44:24;;;;;;;;;;;;;;;16.57;61.60;100180.63;2077602;28;19936;-69
2022/12/31 00:45:25;;;;;;;;;;;;;;;16.58;61.83;100176.72;2071361;28;19928;-70
2022/12/31 00:46:28;;;;;;;;;;;;;;;16.57;61.66;100184.09;2090976;28;19928;-71
2022/12/31 00:47:29;;;;;;;;;;;;;;;16.57;61.92;100181.38;2087868;28;20019;-70
2022/12/31 00:48:32;;;;;;;;;;;;;;;16.57;61.52;100192.28;2078374;28;19936;-70
2022/12/31 00:49:34;;;;;;;;;;;;;;;16.57;61.84;100186.81;2079775;28;20020;-70
2022/12/31 00:50:36;;;;;;;;;;;;;;;16.57;61.60;100191.53;2075566;28;19936;-70
2022/12/31 00:51:38;;;;;;;;;;;;;;;16.57;61.76;100191.53;2077615;28;19936;-71
2022/12/31 00:52:40;;;;;;;;;;;;;;;16.57;61.89;100186.06;2071250;28;19937;-70
2022/12/31 00:53:42;;;;;;;;;;;;;;;16.56;61.86;100182.56;2069146;28;19929;-70
2022/12/31 00:54:45;;;;;;;;;;;;;;;16.57;61.78;100195.00;2083460;28;19928;-70
2022/12/31 00:55:46;;;;;;;;;;;;;;;16.57;61.56;100192.28;2077236;28;19925;-71
2022/12/31 00:56:49;;;;;;;;;;;;;;;16.56;61.59;100196.19;2075038;28;19941;-70
2022/12/31 00:57:51;;;;;;;;;;;;;;;16.56;61.71;100196.19;2092429;28;20396;-70
2022/12/31 00:58:54;;;;;;;;;;;;;;;16.57;61.84;100191.53;2082813;28;19932;-70
2022/12/31 00:59:56;;;;;;;;;;;;;;;16.56;61.79;100196.19;2065383;28;19936;-71
2022/12/31 01:00:59;;;;;;;;;;;;;;;16.56;61.79;100190.75;2077335;28;19926;-70
2022/12/31 01:02:00;;;;;;;;;;;;;;;16.56;61.95;100190.75;2085766;28;19929;-70
2022/12/31 01:03:03;;;;;;;;;;;;;;;16.56;61.87;100195.41;2079621;28;19956;-70
2022/12/31 01:04:06;;;;;;;;;;;;;;;16.55;61.86;100182.97;2081611;28;20339;-70
2022/12/31 01:05:08;;;;;;;;;;;;;;;16.56;61.76;100190.75;2085430;28;19936;-70
2022/12/31 01:06:10;;;;;;;;;;;;;;;16.56;61.86;100185.28;2083698;28;19940;-69
2022/12/31 01:07:13;;;;;;;;;;;;;;;16.56;61.82;100192.69;2081918;28;19925;-69
2022/12/31 01:08:14;;;;;;;;;;;;;;;16.55;61.76;100182.97;2087104;28;19948;-71
2022/12/31 01:09:17;;;;;;;;;;;;;;;16.56;61.65;100184.50;2086093;28;21022;-70
2022/12/31 01:11:36;;;;;;;;;;;;;;;16.56;61.96;100181.78;2081414;28;19928;-69
2022/12/31 01:12:38;;;;;;;;;;;;;;;16.56;61.92;100184.50;2075947;28;19933;-69
2022/12/31 01:13:41;;;;;;;;;;;;;;;16.56;61.66;100179.06;2084609;28;19929;-70
2022/12/31 01:14:45;;;;;;;;;;;;;;;16.56;61.88;100184.50;2088515;28;19925;-69
2022/12/31 01:15:46;;;;;;;;;;;;;;;16.55;61.80;100183.75;2090773;28;19925;-70
2022/12/31 01:16:50;;;;;;;;;;;;;;;16.56;61.86;100189.94;2093528;28;20577;-69
2022/12/31 01:17:52;;;;;;;;;;;;;;;16.55;61.65;100188.41;2079854;28;20428;-70
2022/12/31 01:18:54;;;;;;;;;;;;;;;16.55;61.86;100191.91;2073462;28;19936;-70
2022/12/31 01:19:56;;;;;;;;;;;;;;;16.56;61.77;100189.94;2078847;28;20039;-70
2022/12/31 01:21:00;;;;;;;;;;;;;;;16.56;61.92;100200.84;2080971;28;19932;-70
2022/12/31 01:22:03;;;;;;;;;;;;;;;16.55;61.61;100194.66;2090594;28;19979;-70
2022/12/31 01:23:05;;;;;;;;;;;;;;;16.56;61.82;100195.41;2084045;28;19933;-70
2022/12/31 01:24:09;;;;;;;;;;;;;;;16.54;61.86;100193.06;2083834;28;19983;-69
2022/12/31 01:25:10;;;;;;;;;;;;;;;16.56;61.74;100187.22;2089430;28;19944;-70
2022/12/31 01:26:14;;;;;;;;;;;;;;;16.55;61.87;100189.19;2087554;28;19925;-70
2022/12/31 01:27:16;;;;;;;;;;;;;;;16.56;61.80;100203.59;2084431;28;21037;-69
2022/12/31 01:28:18;;;;;;;;;;;;;;;16.56;61.86;100206.31;2082134;28;20365;-70
2022/12/31 01:29:20;;;;;;;;;;;;;;;16.55;61.91;100204.75;2081570;28;19951;-70
2022/12/31 01:30:24;;;;;;;;;;;;;;;16.55;61.76;100207.50;2073240;28;19940;-70
2022/12/31 01:31:26;;;;;;;;;;;;;;;16.54;61.63;100214.13;2081802;28;19933;-70
2022/12/31 01:32:28;;;;;;;;;;;;;;;16.54;61.87;100209.44;2084445;28;19991;-70
2022/12/31 01:33:30;;;;;;;;;;;;;;;16.54;61.66;100203.22;2090933;28;19935;-70
2022/12/31 01:34:33;;;;;;;;;;;;;;;16.54;61.81;100208.66;2077651;28;19940;-70
2022/12/31 01:35:35;;;;;;;;;;;;;;;16.54;61.85;100208.66;2077384;28;20340;-70
2022/12/31 01:36:38;;;;;;;;;;;;;;;16.54;61.83;100211.41;2085748;28;20059;-70
2022/12/31 01:37:39;;;;;;;;;;;;;;;16.53;61.72;100207.88;2087543;28;20653;-70
2022/12/31 01:38:42;;;;;;;;;;;;;;;16.54;61.51;100208.66;2084272;28;19952;-70
2022/12/31 01:39:44;;;;;;;;;;;;;;;16.54;61.67;100211.41;2085378;28;19933;-69
2022/12/31 01:40:47;;;;;;;;;;;;;;;16.54;61.80;100214.88;2092472;28;20006;-70
2022/12/31 01:41:49;;;;;;;;;;;;;;;16.54;61.88;100208.66;2086385;28;19929;-69
2022/12/31 01:42:55;;;;;;;;;;;;;;;16.54;61.87;100214.13;2087643;28;20003;-70
2022/12/31 01:43:57;;;;;;;;;;;;;;;16.53;61.74;100218.78;2078772;28;20947;-69
2022/12/31 01:45:00;;;;;;;;;;;;;;;16.54;61.88;100220.31;2080554;28;19933;-70
2022/12/31 01:46:03;;;;;;;;;;;;;;;16.53;61.81;100207.09;2086740;28;21114;-69
2022/12/31 01:47:12;;;;;;;;;;;;;;;16.53;61.68;100213.34;2091140;28;19929;-70
2022/12/31 01:48:16;;;;;;;;;;;;;;;16.53;61.94;100213.34;2088148;28;19932;-71
2022/12/31 01:49:20;;;;;;;;;;;;;;;16.53;61.64;100213.34;2079276;28;19940;-71
2022/12/31 01:50:25;;;;;;;;;;;;;;;16.53;61.80;100216.06;2078381;28;19933;-71
2022/12/31 01:51:28;;;;;;;;;;;;;;;16.54;61.84;100208.66;2077967;28;19960;-70
2022/12/31 01:52:32;;;;;;;;;;;;;;;16.53;61.60;100218.00;2082468;28;19929;-71
2022/12/31 01:53:35;;;;;;;;;;;;;;;16.52;61.83;100219.97;2080535;28;19932;-69
2022/12/31 01:54:43;;;;;;;;;;;;;;;16.53;61.76;100209.81;2085774;28;20027;-70
2022/12/31 01:55:50;;;;;;;;;;;;;;;16.53;61.65;100220.72;2082138;28;19995;-70
2022/12/31 01:56:52;;;;;;;;;;;;;;;16.52;61.62;100221.91;2073917;28;19933;-70
2022/12/31 01:57:57;;;;;;;;;;;;;;;16.53;61.48;100216.06;2072949;28;19958;-70
2022/12/31 01:58:58;;;;;;;;;;;;;;;16.53;61.68;100220.72;2060778;28;20397;-70
2022/12/31 02:00:01;;;;;;;;;;;;;;;16.53;62.00;100223.44;2066214;28;19938;-70
2022/12/31 02:01:08;;;;;;;;;;;;;;;16.53;61.79;100231.63;2073861;28;19933;-70
2022/12/31 02:02:11;;;;;;;;;;;;;;;16.52;61.58;100225.41;2082307;28;19932;-69
2022/12/31 02:03:13;;;;;;;;;;;;;;;16.52;61.62;100228.16;2092379;28;20309;-69
2022/12/31 02:04:16;;;;;;;;;;;;;;;16.53;61.89;100231.63;2089063;28;20069;-69
2022/12/31 02:05:21;;;;;;;;;;;;;;;16.52;61.95;100219.19;2079597;28;19929;-69
2022/12/31 02:06:27;;;;;;;;;;;;;;;16.52;61.85;100227.34;2087112;28;19929;-70
2022/12/31 02:07:28;;;;;;;;;;;;;;;16.52;61.70;100227.34;2087446;28;20347;-70
2022/12/31 02:08:31;;;;;;;;;;;;;;;16.52;61.79;100227.34;2076188;28;19933;-70
2022/12/31 02:09:38;;;;;;;;;;;;;;;16.52;61.71;100232.81;2077505;28;19952;-70
2022/12/31 02:10:41;;;;;;;;;;;;;;;16.52;61.87;100235.53;2081827;28;19925;-70
2022/12/31 02:11:43;;;;;;;;;;;;;;;16.52;61.80;100232.81;2090527;28;19928;-71
2022/12/31 02:12:45;;;;;;;;;;;;;;;16.51;61.93;100229.28;2080126;28;20392;-69
2022/12/31 02:13:47;;;;;;;;;;;;;;;16.52;61.91;100240.97;2078132;28;21120;-70
2022/12/31 02:14:56;;;;;;;;;;;;;;;16.52;61.93;100238.25;2082646;28;19928;-70
2022/12/31 02:16:02;;;;;;;;;;;;;;;16.53;61.94;100231.63;2075868;28;20090;-70
2022/12/31 02:17:10;;;;;;;;;;;;;;;16.52;61.84;100232.81;2079122;28;19929;-70
2022/12/31 02:18:22;;;;;;;;;;;;;;;16.51;61.77;100223.09;2084197;28;19929;-70
2022/12/31 02:19:38;;;;;;;;;;;;;;;16.52;61.62;100213.72;2086072;28;20043;-70
2022/12/31 02:20:52;;;;;;;;;;;;;;;16.51;61.71;100214.91;2077784;28;19929;-70
2022/12/31 02:21:59;;;;;;;;;;;;;;;16.50;61.94;100214.13;2076991;28;19960;-70
2022/12/31 02:23:13;;;;;;;;;;;;;;;16.51;61.93;100220.38;2081121;28;19978;-70
2022/12/31 02:24:32;;;;;;;;;;;;;;;16.51;61.63;100226.56;2088266;28;19933;-70
2022/12/31 02:25:45;;;;;;;;;;;;;;;16.51;61.84;100225.81;2086421;28;19929;-69
2022/12/31 02:26:53;;;;;;;;;;;;;;;16.51;61.85;100231.25;2075588;28;19935;-69
2022/12/31 02:28:01;;;;;;;;;;;;;;;16.52;61.90;100227.34;2083876;28;19932;-70
2022/12/31 02:29:14;;;;;;;;;;;;;;;16.51;61.64;100237.47;2086276;28;19928;-69
2022/12/31 02:30:19;;;;;;;;;;;;;;;16.51;61.74;100236.72;2086076;28;19940;-71
2022/12/31 02:31:23;;;;;;;;;;;;;;;16.51;61.76;100223.09;2076161;28;20362;-70
2022/12/31 02:32:29;;;;;;;;;;;;;;;16.51;61.98;100236.72;2073238;28;20013;-70
2022/12/31 02:33:35;;;;;;;;;;;;;;;16.51;61.61;100231.25;2088262;28;20423;-70
2022/12/31 02:34:39;;;;;;;;;;;;;;;16.51;61.81;100223.09;2086502;28;19933;-70
2022/12/31 02:35:46;;;;;;;;;;;;;;;16.51;61.74;100214.91;2081830;28;19929;-70
2022/12/31 02:36:51;;;;;;;;;;;;;;;16.51;61.89;100225.81;2082119;28;19933;-71
2022/12/31 02:37:58;;;;;;;;;;;;;;;16.50;61.63;100224.25;2076838;28;19932;-70
2022/12/31 02:39:02;;;;;;;;;;;;;;;16.51;61.84;100231.25;2076925;28;19925;-71
2022/12/31 02:40:07;;;;;;;;;;;;;;;16.51;61.78;100228.53;2082293;28;19929;-70
2022/12/31 02:41:11;;;;;;;;;;;;;;;16.50;61.93;100219.56;2087158;28;19992;-70
2022/12/31 02:42:14;;;;;;;;;;;;;;;16.51;62.03;100220.38;2086457;28;20533;-71
2022/12/31 02:43:17;;;;;;;;;;;;;;;16.51;61.98;100236.72;2079453;28;19933;-70
2022/12/31 02:44:20;;;;;;;;;;;;;;;16.50;61.85;100227.75;2087546;28;19940;-71
2022/12/31 02:45:28;;;;;;;;;;;;;;;16.50;61.52;100230.47;2086762;28;20404;-71
2022/12/31 02:46:33;;;;;;;;;;;;;;;16.50;61.93;100229.69;2087681;28;19958;-70
2022/12/31 02:47:44;;;;;;;;;;;;;;;16.50;61.88;100232.41;2088050;28;19933;-70
2022/12/31 02:48:48;;;;;;;;;;;;;;;16.50;61.85;100224.25;2085072;28;19939;-71
2022/12/31 02:49:58;;;;;;;;;;;;;;;16.49;61.62;100223.47;2084596;28;19929;-71
2022/12/31 02:51:07;;;;;;;;;;;;;;;16.49;62.01;100219.97;2085445;28;19940;-70
2022/12/31 02:52:14;;;;;;;;;;;;;;;16.50;62.04;100226.97;2078943;28;19929;-70
2022/12/31 02:53:24;;;;;;;;;;;;;;;16.48;61.58;100210.22;2074231;28;19933;-70
2022/12/31 02:54:31;;;;;;;;;;;;;;;16.50;61.89;100213.34;2081715;28;19935;-70
2022/12/31 02:55:36;;;;;;;;;;;;;;;16.50;61.95;100221.50;2084963;28;19936;-70
2022/12/31 02:56:42;;;;;;;;;;;;;;;16.50;61.89;100213.34;2083382;28;19929;-70
2022/12/31 02:57:47;;;;;;;;;;;;;;;16.50;61.65;100210.63;2078747;28;19984;-69
2022/12/31 03:02:18;;;;;;;;;;;;;;;16.49;61.86;100211.81;2051186;28;19930;-70
2022/12/31 03:03:20;;;;;;;;;;;;;;;16.49;61.87;100207.09;2057119;28;20274;-70
2022/12/31 03:04:33;;;;;;;;;;;;;;;16.50;61.80;100207.88;2063936;28;19926;-70
2022/12/31 03:05:37;;;;;;;;;;;;;;;16.48;61.62;100200.13;2062526;28;19929;-71
2022/12/31 03:06:41;;;;;;;;;;;;;;;16.49;61.67;100206.34;2064075;28;19929;-70
2022/12/31 03:07:45;;;;;;;;;;;;;;;16.50;61.62;100207.88;2072377;28;19933;-70
2022/12/31 03:10:13;;;;;;;;;;;;;;;16.49;61.68;100206.34;2068683;28;19932;-70
2022/12/31 03:12:45;;;;;;;;;;;;;;;16.49;61.76;100200.91;2077163;28;19944;-70
2022/12/31 03:12:47;;;;;;;;;;;;;;;16.49;61.85;100203.63;2087979;28;20400;-70
2022/12/31 03:13:48;;;;;;;;;;;;;;;16.49;61.93;100209.06;2092559;28;20392;-70
2022/12/31 03:14:51;;;;;;;;;;;;;;;16.49;61.98;100211.81;2096297;28;19931;-70
2022/12/31 03:15:54;;;;;;;;;;;;;;;16.49;61.88;100219.97;2088490;28;19932;-70
2022/12/31 03:16:57;;;;;;;;;;;;;;;16.49;61.60;100217.25;2079902;28;19937;-70
2022/12/31 03:18:00;;;;;;;;;;;;;;;16.48;61.95;100216.47;2079507;28;19928;-71
2022/12/31 03:23:05;;;;;;;;;;;;;;;16.48;61.85;100213.75;2088246;28;20036;-70
2022/12/31 03:25:34;;;;;;;;;;;;;;;16.48;61.81;100208.28;2085518;28;20411;-71
2022/12/31 03:26:35;;;;;;;;;;;;;;;16.48;61.88;100211.00;2088130;28;20645;-70
2022/12/31 03:27:38;;;;;;;;;;;;;;;16.48;61.88;100211.00;2086492;28;19925;-70
2022/12/31 03:28:42;;;;;;;;;;;;;;;16.48;62.04;100205.56;2086291;28;19924;-71
2022/12/31 03:29:48;;;;;;;;;;;;;;;16.49;61.88;100206.34;2085800;28;20278;-71
2022/12/31 03:30:52;;;;;;;;;;;;;;;16.49;61.65;100206.34;2085556;28;20315;-71
2022/12/31 03:31:53;;;;;;;;;;;;;;;16.48;61.73;100194.66;2088352;28;19959;-72
2022/12/31 03:32:58;;;;;;;;;;;;;;;16.48;61.88;100199.31;2086313;28;19940;-70
2022/12/31 03:33:59;;;;;;;;;;;;;;;16.48;61.61;100207.50;2079038;28;19982;-71
2022/12/31 03:35:02;;;;;;;;;;;;;;;16.48;61.93;100200.13;2084494;28;19929;-71
2022/12/31 03:36:06;;;;;;;;;;;;;;;16.46;61.87;100199.72;2083345;28;19983;-71
2022/12/31 03:37:08;;;;;;;;;;;;;;;16.48;61.84;100204.78;2085365;28;20639;-70
2022/12/31 03:38:10;;;;;;;;;;;;;;;16.48;61.86;100211.00;2068683;28;20306;-71
2022/12/31 03:39:12;;;;;;;;;;;;;;;16.48;61.78;100210.22;2070061;28;19934;-71
2022/12/31 03:40:15;;;;;;;;;;;;;;;16.48;61.90;100219.19;2076238;28;19933;-70
2022/12/31 03:41:16;;;;;;;;;;;;;;;16.48;61.67;100215.69;2079203;28;19933;-70
2022/12/31 03:42:19;;;;;;;;;;;;;;;16.47;61.78;100208.69;2080328;28;19953;-70
2022/12/31 03:43:22;;;;;;;;;;;;;;;16.48;61.75;100207.50;2078405;28;20339;-70
2022/12/31 03:44:24;;;;;;;;;;;;;;;16.47;61.71;100204.03;2085697;28;19982;-71
2022/12/31 03:45:26;;;;;;;;;;;;;;;16.47;61.93;100209.47;2086970;28;20027;-70
2022/12/31 03:46:28;;;;;;;;;;;;;;;16.47;61.79;100208.69;2078656;28;20397;-70
2022/12/31 03:47:30;;;;;;;;;;;;;;;16.47;61.89;100205.97;2083245;28;20439;-70
2022/12/31 03:48:34;;;;;;;;;;;;;;;16.47;61.92;100204.03;2093099;28;20489;-70
2022/12/31 03:49:38;;;;;;;;;;;;;;;16.47;61.72;100209.47;2084850;28;20002;-71
2022/12/31 03:50:41;;;;;;;;;;;;;;;16.47;61.63;100206.75;2087081;28;19925;-73
2022/12/31 03:51:43;;;;;;;;;;;;;;;16.48;61.55;100204.78;2088961;28;19968;-72
2022/12/31 03:52:45;;;;;;;;;;;;;;;16.47;61.82;100204.03;2084692;28;19937;-73
2022/12/31 03:53:47;;;;;;;;;;;;;;;16.47;61.95;100201.28;2082932;28;19979;-73
2022/12/31 03:54:50;;;;;;;;;;;;;;;16.48;61.71;100202.06;2083875;28;19979;-73
2022/12/31 03:55:52;;;;;;;;;;;;;;;16.47;61.71;100200.50;2070330;28;20326;-72
2022/12/31 03:56:54;;;;;;;;;;;;;;;16.47;61.70;100204.03;2071530;28;20349;-73
2022/12/31 03:58:02;;;;;;;;;;;;;;;16.47;61.70;100198.56;2081026;28;19933;-73
2022/12/31 03:59:03;;;;;;;;;;;;;;;16.46;61.67;100202.44;2078956;28;19999;-73
2022/12/31 04:00:10;;;;;;;;;;;;;;;16.47;61.69;100200.50;2077738;28;19925;-73
2022/12/31 04:01:12;;;;;;;;;;;;;;;16.47;61.89;100208.69;2080201;28;20019;-74
2022/12/31 04:02:15;;;;;;;;;;;;;;;16.47;61.92;100208.69;2078795;28;20653;-73
2022/12/31 04:03:18;;;;;;;;;;;;;;;16.47;61.82;100203.22;2080458;28;19937;-73
2022/12/31 04:04:21;;;;;;;;;;;;;;;16.47;61.72;100214.13;2077580;28;20094;-74
2022/12/31 04:05:24;;;;;;;;;;;;;;;16.47;61.81;100216.84;2081170;28;20006;-74
2022/12/31 04:06:25;;;;;;;;;;;;;;;16.47;61.89;100211.41;2086972;28;19983;-74
2022/12/31 04:07:28;;;;;;;;;;;;;;;16.47;61.88;100219.59;2085549;28;19974;-74
2022/12/31 04:08:30;;;;;;;;;;;;;;;16.47;61.70;100205.97;2077024;28;19932;-74
2022/12/31 04:09:32;;;;;;;;;;;;;;;16.47;61.84;100208.69;2086094;28;19979;-73
2022/12/31 04:10:34;;;;;;;;;;;;;;;16.46;61.93;100210.63;2086926;28;19929;-74
2022/12/31 04:11:36;;;;;;;;;;;;;;;16.46;61.87;100207.91;2080615;28;19941;-74
2022/12/31 04:12:38;;;;;;;;;;;;;;;16.46;61.70;100220.75;2079291;28;19979;-73
2022/12/31 04:13:41;;;;;;;;;;;;;;;16.46;61.74;100218.03;2076065;28;21117;-74
2022/12/31 04:14:42;;;;;;;;;;;;;;;16.47;61.69;100211.41;2075115;28;19944;-73
2022/12/31 04:15:45;;;;;;;;;;;;;;;16.46;61.71;100220.75;2076127;28;19979;-73
2022/12/31 04:16:46;;;;;;;;;;;;;;;16.46;61.72;100226.22;2084506;28;20044;-74
2022/12/31 04:17:49;;;;;;;;;;;;;;;16.47;61.89;100223.09;2085552;28;19937;-74
2022/12/31 04:18:53;;;;;;;;;;;;;;;16.46;61.59;100224.25;2084860;28;19933;-74
2022/12/31 04:19:57;;;;;;;;;;;;;;;16.47;61.99;100219.59;2086798;28;19983;-73
2022/12/31 04:21:00;;;;;;;;;;;;;;;16.47;61.86;100216.84;2079826;28;20413;-73
2022/12/31 04:22:03;;;;;;;;;;;;;;;16.47;61.78;100220.38;2076882;28;19968;-74
2022/12/31 04:23:04;;;;;;;;;;;;;;;16.46;61.91;100207.13;2069651;28;20021;-73
2022/12/31 04:24:11;;;;;;;;;;;;;;;16.46;61.93;100213.34;2071788;28;20305;-73
2022/12/31 04:25:13;;;;;;;;;;;;;;;16.46;61.83;100218.78;2088380;28;20315;-73
2022/12/31 04:26:15;;;;;;;;;;;;;;;16.46;61.87;100218.03;2085325;28;19989;-74
2022/12/31 04:27:18;;;;;;;;;;;;;;;16.45;61.85;100217.25;2086252;28;19932;-73
2022/12/31 04:28:20;;;;;;;;;;;;;;;16.45;61.55;100209.06;2082791;28;19949;-73
2022/12/31 04:29:22;;;;;;;;;;;;;;;16.47;61.64;100208.69;2075546;28;20008;-73
2022/12/31 04:30:25;;;;;;;;;;;;;;;16.46;61.87;100209.88;2076602;28;20389;-74
2022/12/31 04:31:27;;;;;;;;;;;;;;;16.46;61.61;100218.78;2078054;28;20021;-73
2022/12/31 04:32:29;;;;;;;;;;;;;;;16.46;61.96;100215.31;2085713;28;19983;-73
2022/12/31 04:33:31;;;;;;;;;;;;;;;16.46;61.70;100215.31;2092279;28;20281;-75
2022/12/31 04:34:34;;;;;;;;;;;;;;;16.46;61.66;100216.06;2083395;28;19925;-73
2022/12/31 04:35:38;;;;;;;;;;;;;;;16.44;61.89;100213.75;2085069;28;20371;-73
2022/12/31 04:36:39;;;;;;;;;;;;;;;16.45;61.64;100211.81;2085522;28;20395;-73
2022/12/31 04:37:42;;;;;;;;;;;;;;;16.45;61.87;100206.34;2078194;28;19986;-73
2022/12/31 04:38:45;;;;;;;;;;;;;;;16.45;61.72;100209.06;2085498;28;19928;-73
2022/12/31 04:39:48;;;;;;;;;;;;;;;16.46;61.78;100212.59;2085973;28;19981;-74
2022/12/31 04:42:11;;;;;;;;;;;;;;;16.45;61.83;100219.97;2080371;28;19937;-73
2022/12/31 04:43:13;;;;;;;;;;;;;;;16.44;61.58;100200.13;2075462;28;20454;-73
2022/12/31 04:44:16;;;;;;;;;;;;;;;16.44;61.79;100221.91;2085614;28;19975;-74
2022/12/31 04:45:18;;;;;;;;;;;;;;;16.44;61.82;100216.47;2084073;28;20454;-74
2022/12/31 04:46:21;;;;;;;;;;;;;;;16.44;61.89;100211.03;2075855;28;20020;-73
2022/12/31 04:47:24;;;;;;;;;;;;;;;16.46;61.92;100204.41;2085102;28;19939;-74
2022/12/31 04:48:25;;;;;;;;;;;;;;;16.43;61.68;100212.16;2084716;28;19936;-75
2022/12/31 04:49:28;;;;;;;;;;;;;;;16.44;61.85;100213.75;2077627;28;19929;-73
2022/12/31 04:50:30;;;;;;;;;;;;;;;16.44;61.97;100208.28;2079306;28;20024;-73
2022/12/31 04:51:34;;;;;;;;;;;;;;;16.45;61.78;100217.25;2084672;28;19940;-73
2022/12/31 04:52:36;;;;;;;;;;;;;;;16.44;61.86;100216.47;2070502;28;19933;-74
2022/12/31 04:53:44;;;;;;;;;;;;;;;16.44;61.91;100219.19;2079857;28;20449;-73
2022/12/31 04:54:45;;;;;;;;;;;;;;;16.44;61.81;100219.19;2078456;28;19975;-73
2022/12/31 04:55:48;;;;;;;;;;;;;;;16.44;61.83;100216.47;2069909;28;19983;-73
2022/12/31 04:56:50;;;;;;;;;;;;;;;16.44;61.71;100216.47;2072228;28;19938;-74
2022/12/31 04:57:52;;;;;;;;;;;;;;;16.42;61.73;100224.25;2084046;28;20387;-73
2022/12/31 04:58:54;;;;;;;;;;;;;;;16.44;61.71;100227.38;2086680;28;19936;-72
2022/12/31 04:59:57;;;;;;;;;;;;;;;16.44;61.97;100232.81;2087444;28;19936;-73
2022/12/31 05:00:59;;;;;;;;;;;;;;;16.44;61.71;100227.38;2079938;28;19933;-73
2022/12/31 05:02:02;;;;;;;;;;;;;;;16.43;61.80;100231.25;2085785;28;19928;-73
2022/12/31 05:03:04;;;;;;;;;;;;;;;16.43;61.86;100230.47;2085263;28;19965;-73
2022/12/31 05:04:06;;;;;;;;;;;;;;;16.44;61.94;100221.13;2077136;28;20726;-73
2022/12/31 05:05:08;;;;;;;;;;;;;;;16.43;61.72;100231.25;2076544;28;19929;-73
2022/12/31 05:06:11;;;;;;;;;;;;;;;16.44;61.81;100238.28;2077785;28;19929;-72
2022/12/31 05:07:15;;;;;;;;;;;;;;;16.43;61.95;100225.78;2078031;28;19933;-73
2022/12/31 05:08:18;;;;;;;;;;;;;;;16.43;61.94;100233.97;2083711;28;20289;-72
2022/12/31 05:09:22;;;;;;;;;;;;;;;16.44;61.81;100227.38;2088033;28;19991;-72
2022/12/31 05:10:25;;;;;;;;;;;;;;;16.43;62.00;100223.06;2085467;28;20326;-72
2022/12/31 05:11:27;;;;;;;;;;;;;;;16.43;61.68;100204.00;2085521;28;19925;-72
2022/12/31 05:12:30;;;;;;;;;;;;;;;16.43;61.84;100204.00;2088329;28;20363;-72
2022/12/31 05:13:32;;;;;;;;;;;;;;;16.43;61.65;100212.16;2085619;28;20377;-72
2022/12/31 05:14:35;;;;;;;;;;;;;;;16.43;61.84;100193.09;2076010;28;19929;-74
2022/12/31 05:15:36;;;;;;;;;;;;;;;16.44;61.69;100199.34;2084102;28;20477;-73
2022/12/31 05:16:39;;;;;;;;;;;;;;;16.43;61.72;100190.38;2084490;28;19940;-74
2022/12/31 05:17:41;;;;;;;;;;;;;;;16.43;61.72;100195.81;2083683;28;19998;-74
2022/12/31 05:18:43;;;;;;;;;;;;;;;16.43;61.99;100193.09;2084772;28;19925;-73
2022/12/31 05:19:45;;;;;;;;;;;;;;;16.43;61.94;100197.75;2085068;28;20032;-74
2022/12/31 05:20:48;;;;;;;;;;;;;;;16.43;61.95;100198.53;2077867;28;20471;-74
2022/12/31 05:23:09;;;;;;;;;;;;;;;16.43;61.82;100190.38;2085344;28;19928;-73
2022/12/31 05:24:11;;;;;;;;;;;;;;;16.43;61.87;100197.75;2087151;28;19936;-73
2022/12/31 05:25:13;;;;;;;;;;;;;;;16.43;61.92;100200.47;2079255;28;20385;-73
2022/12/31 05:26:16;;;;;;;;;;;;;;;16.43;61.65;100192.31;2080563;28;19933;-72
2022/12/31 05:27:17;;;;;;;;;;;;;;;16.43;61.96;100195.03;2083424;28;19936;-71
2022/12/31 05:28:20;;;;;;;;;;;;;;;16.43;61.62;100206.72;2083970;28;19940;-72
2022/12/31 05:29:22;;;;;;;;;;;;;;;16.44;61.65;100196.59;2081019;28;19925;-72
2022/12/31 05:30:24;;;;;;;;;;;;;;;16.42;61.82;100202.47;2075343;28;19976;-72
2022/12/31 05:31:26;;;;;;;;;;;;;;;16.43;61.63;100195.03;2073871;28;20020;-72
2022/12/31 05:32:29;;;;;;;;;;;;;;;16.43;61.65;100211.38;2085409;28;19975;-72
2022/12/31 05:33:31;;;;;;;;;;;;;;;16.43;61.45;100203.22;2086338;28;19925;-72
2022/12/31 05:34:33;;;;;;;;;;;;;;;16.43;61.63;100203.22;2084665;28;19999;-72
2022/12/31 05:35:36;;;;;;;;;;;;;;;16.42;61.65;100207.91;2087346;28;19976;-72
2022/12/31 05:36:37;;;;;;;;;;;;;;;16.43;61.79;100204.00;2083712;28;20012;-73
2022/12/31 05:37:40;;;;;;;;;;;;;;;16.42;61.72;100202.47;2083744;28;19933;-73
2022/12/31 05:38:43;;;;;;;;;;;;;;;16.43;61.62;100204.00;2086519;28;19929;-72
2022/12/31 05:39:46;;;;;;;;;;;;;;;16.42;61.81;100210.63;2085575;28;20020;-73